createdAt,value
2023-08-04T00:00:53.439Z,4.37
2023-08-04T00:03:21.225Z,4.02
2023-08-04T00:05:48.992Z,4.20
2023-08-04T00:08:17.168Z,4.32
2023-08-04T00:10:45.038Z,4.14
2023-08-04T00:13:12.983Z,4.33
2023-08-04T00:15:40.920Z,4.24
2023-08-04T00:18:08.886Z,4.43
2023-08-04T00:20:39.407Z,4.17
2023-08-04T00:23:07.361Z,4.42
2023-08-04T00:25:35.179Z,4.41
2023-08-04T00:28:03.311Z,4.33
2023-08-04T00:30:31.426Z,4.72
2023-08-04T00:32:59.195Z,4.37
2023-08-04T00:35:27.078Z,4.47
2023-08-04T00:37:54.920Z,4.38
2023-08-04T00:40:23.274Z,4.66
2023-08-04T00:42:51.162Z,4.36
2023-08-04T00:45:18.883Z,4.48
2023-08-04T00:47:46.781Z,4.29
2023-08-04T00:50:15.440Z,4.38
2023-08-04T00:52:45.884Z,4.82
2023-08-04T00:55:16.277Z,4.64
2023-08-04T00:57:45.147Z,4.95
2023-08-04T01:00:13.331Z,4.64
2023-08-04T01:02:41.878Z,4.66
2023-08-04T01:05:10.071Z,4.93
2023-08-04T01:08:15.610Z,4.57
2023-08-04T01:11:19.085Z,4.91
2023-08-04T01:13:48.439Z,4.75
2023-08-04T01:16:16.596Z,4.51
2023-08-04T01:18:44.522Z,4.64
2023-08-04T01:21:12.366Z,4.87
2023-08-04T01:23:40.203Z,4.51
2023-08-04T01:26:11.710Z,4.37
2023-08-04T01:28:42.984Z,4.73
2023-08-04T01:31:11.786Z,4.60
2023-08-04T01:33:39.838Z,4.54
2023-08-04T01:36:07.766Z,4.57
2023-08-04T01:38:35.582Z,5.33
2023-08-04T01:41:03.850Z,4.84
2023-08-04T01:43:31.706Z,4.87
2023-08-04T01:46:00.719Z,4.68
2023-08-04T01:48:28.922Z,5.05
2023-08-04T01:50:56.734Z,5.05
2023-08-04T01:53:24.413Z,4.80
2023-08-04T01:55:52.127Z,4.96
2023-08-04T01:58:21.499Z,4.80
2023-08-04T02:00:49.311Z,4.98
2023-08-04T02:03:17.365Z,5.19
2023-08-04T02:05:51.421Z,5.08
2023-08-04T02:08:19.240Z,5.17
2023-08-04T02:10:51.183Z,5.10
2023-08-04T02:13:19.430Z,4.88
2023-08-04T02:15:47.282Z,4.93
2023-08-04T02:18:15.288Z,4.99
2023-08-04T02:20:43.067Z,5.11
2023-08-04T02:23:12.260Z,5.09
2023-08-04T02:25:40.186Z,5.00
2023-08-04T02:28:08.975Z,5.13
2023-08-04T02:30:36.785Z,5.19
2023-08-04T02:33:05.053Z,4.90
2023-08-04T02:35:32.939Z,5.40
2023-08-04T02:38:00.715Z,5.34
2023-08-04T02:40:28.464Z,5.18
2023-08-04T02:42:56.203Z,5.41
2023-08-04T02:45:24.173Z,5.47
2023-08-04T02:47:52.354Z,5.48
2023-08-04T02:50:20.148Z,5.47
2023-08-04T02:52:48.018Z,5.58
2023-08-04T02:55:15.906Z,5.36
2023-08-04T02:57:43.810Z,5.27
2023-08-04T03:00:12.375Z,5.52
2023-08-04T03:02:40.316Z,5.80
2023-08-04T03:05:08.573Z,5.99
2023-08-04T03:07:38.382Z,5.90
2023-08-04T03:10:06.963Z,5.85
2023-08-04T03:12:34.807Z,5.92
2023-08-04T03:15:03.889Z,5.59
2023-08-04T03:17:31.825Z,5.62
2023-08-04T03:19:59.701Z,5.88
2023-08-04T03:22:27.623Z,6.49
2023-08-04T03:24:56.636Z,6.87
2023-08-04T03:27:25.000Z,6.55
2023-08-04T03:29:54.123Z,6.44
2023-08-04T03:32:22.000Z,6.32
2023-08-04T03:34:49.775Z,6.71
2023-08-04T03:37:17.493Z,6.16
2023-08-04T03:39:45.390Z,6.30
2023-08-04T03:42:13.176Z,6.53
2023-08-04T03:44:40.979Z,6.83
2023-08-04T03:47:08.742Z,7.21
2023-08-04T03:49:36.475Z,6.69
2023-08-04T03:52:04.676Z,6.39
2023-08-04T03:54:32.769Z,6.71
2023-08-04T03:57:00.576Z,6.69
2023-08-04T03:59:28.295Z,6.52
2023-08-04T04:01:56.429Z,6.73
2023-08-04T04:04:24.209Z,6.93
2023-08-04T04:06:52.198Z,7.45
2023-08-04T04:09:20.069Z,7.23
2023-08-04T04:11:48.079Z,6.90
2023-08-04T04:14:16.148Z,7.11
2023-08-04T04:16:44.161Z,6.63
2023-08-04T04:19:11.894Z,7.06
2023-08-04T04:21:39.596Z,7.42
2023-08-04T04:24:07.415Z,7.16
2023-08-04T04:26:35.166Z,7.00
2023-08-04T04:29:02.934Z,7.36
2023-08-04T04:31:30.905Z,7.73
2023-08-04T04:33:58.837Z,7.69
2023-08-04T04:36:26.596Z,7.99
2023-08-04T04:38:54.533Z,8.30
2023-08-04T04:41:22.404Z,8.06
2023-08-04T04:43:50.351Z,8.18
2023-08-04T04:46:18.178Z,8.34
2023-08-04T04:48:46.076Z,8.36
2023-08-04T04:51:14.019Z,8.55
2023-08-04T04:53:41.737Z,8.44
2023-08-04T04:56:09.463Z,8.63
2023-08-04T04:58:37.740Z,8.39
2023-08-04T05:01:06.974Z,8.35
2023-08-04T05:03:35.022Z,8.97
2023-08-04T05:06:02.956Z,8.75
2023-08-04T05:08:30.905Z,8.71
2023-08-04T05:10:59.248Z,9.10
2023-08-04T05:13:30.720Z,8.91
2023-08-04T05:15:58.796Z,8.84
2023-08-04T05:18:26.614Z,9.29
2023-08-04T05:20:56.526Z,8.76
2023-08-04T05:23:24.796Z,8.48
2023-08-04T05:25:52.899Z,7.85
2023-08-04T05:28:33.815Z,8.97
2023-08-04T05:31:04.648Z,8.82
2023-08-04T05:33:34.032Z,8.61
2023-08-04T05:36:02.935Z,8.59
2023-08-04T05:38:30.910Z,8.24
2023-08-04T05:41:03.017Z,8.08
2023-08-04T05:43:31.460Z,7.55
2023-08-04T05:46:04.674Z,7.83
2023-08-04T05:48:35.228Z,7.68
2023-08-04T05:51:03.489Z,8.43
2023-08-04T05:53:31.370Z,8.04
2023-08-04T05:55:59.747Z,8.60
2023-08-04T05:58:27.879Z,8.18
2023-08-04T06:00:56.121Z,7.99
2023-08-04T06:03:24.159Z,7.94
2023-08-04T06:05:52.741Z,8.14
2023-08-04T06:08:21.017Z,8.49
2023-08-04T06:10:48.960Z,7.76
2023-08-04T06:13:16.985Z,7.66
2023-08-04T06:15:44.990Z,7.35
2023-08-04T06:18:12.997Z,7.87
2023-08-04T06:20:41.188Z,7.71
2023-08-04T06:23:08.991Z,7.71
2023-08-04T06:25:36.797Z,7.57
2023-08-04T06:28:05.459Z,7.54
2023-08-04T06:30:33.855Z,7.20
2023-08-04T06:33:01.697Z,7.10
2023-08-04T06:35:30.120Z,7.14
2023-08-04T06:37:58.382Z,7.59
2023-08-04T06:40:27.171Z,6.75
2023-08-04T06:42:55.407Z,6.79
2023-08-04T06:45:23.134Z,6.97
2023-08-04T06:47:50.873Z,6.74
2023-08-04T06:50:18.879Z,6.78
2023-08-04T06:52:47.792Z,6.29
2023-08-04T06:55:15.819Z,6.88
2023-08-04T06:57:43.609Z,7.45
2023-08-04T07:00:11.994Z,6.81
2023-08-04T07:02:39.971Z,6.87
2023-08-04T07:05:08.104Z,6.98
2023-08-04T07:07:35.919Z,6.86
2023-08-04T07:10:04.656Z,6.77
2023-08-04T07:12:33.002Z,7.18
2023-08-04T07:15:00.896Z,7.32
2023-08-04T07:17:28.624Z,6.70
2023-08-04T07:19:56.706Z,6.49
2023-08-04T07:22:24.646Z,6.59
2023-08-04T07:24:54.768Z,6.94
2023-08-04T07:27:22.841Z,6.57
2023-08-04T07:29:50.557Z,6.10
2023-08-04T07:32:20.062Z,6.14
2023-08-04T07:34:47.935Z,5.76
2023-08-04T07:37:15.800Z,5.40
2023-08-04T07:39:43.712Z,5.43
2023-08-04T07:42:11.528Z,5.57
2023-08-04T07:44:39.377Z,5.13
2023-08-04T07:47:07.188Z,5.47
2023-08-04T07:49:34.993Z,5.16
2023-08-04T07:52:04.264Z,5.35
2023-08-04T07:54:32.329Z,5.35
2023-08-04T07:57:00.240Z,5.13
2023-08-04T07:59:28.262Z,5.23
2023-08-04T08:01:56.038Z,5.44
2023-08-04T08:04:23.917Z,5.18
2023-08-04T08:06:51.863Z,5.22
2023-08-04T08:09:19.601Z,5.45
2023-08-04T08:11:47.644Z,5.32
2023-08-04T08:14:17.818Z,5.58
2023-08-04T08:16:46.423Z,5.74
2023-08-04T08:19:14.999Z,6.03
2023-08-04T08:21:44.110Z,5.75
2023-08-04T08:24:11.980Z,5.78
2023-08-04T08:26:39.897Z,6.11
2023-08-04T08:29:07.635Z,6.22
2023-08-04T08:31:36.086Z,5.93
2023-08-04T08:34:04.600Z,5.97
2023-08-04T08:36:32.698Z,6.06
2023-08-04T08:39:00.819Z,5.80
2023-08-04T08:41:28.768Z,5.49
2023-08-04T08:43:56.737Z,5.38
2023-08-04T08:46:25.665Z,5.18
2023-08-04T08:48:59.095Z,5.47
2023-08-04T08:51:28.235Z,4.97
2023-08-04T08:53:57.654Z,4.49
2023-08-04T08:56:27.439Z,5.10
2023-08-04T08:58:56.419Z,4.83
2023-08-04T09:01:24.579Z,4.74
2023-08-04T09:03:54.656Z,4.34
2023-08-04T09:06:22.399Z,4.22
2023-08-04T09:08:50.163Z,3.77
2023-08-04T09:11:18.070Z,3.68
2023-08-04T09:13:46.994Z,3.78
2023-08-04T09:16:15.110Z,3.62
2023-08-04T09:18:43.899Z,3.87
2023-08-04T09:21:14.441Z,4.23
2023-08-04T09:23:49.794Z,4.12
2023-08-04T09:26:18.346Z,4.15
2023-08-04T09:28:47.213Z,4.05
2023-08-04T09:31:15.889Z,4.05
2023-08-04T09:33:46.294Z,4.45
2023-08-04T09:36:19.044Z,4.93
2023-08-04T09:38:47.031Z,4.87
2023-08-04T09:41:16.776Z,4.93
2023-08-04T09:43:49.951Z,4.96
2023-08-04T09:46:19.123Z,5.42
2023-08-04T09:48:48.046Z,4.99
2023-08-04T09:51:22.492Z,5.30
2023-08-04T09:53:53.311Z,5.02
2023-08-04T09:56:22.781Z,4.94
2023-08-04T09:58:51.171Z,5.52
2023-08-04T10:01:20.041Z,5.63
2023-08-04T10:03:56.002Z,5.36
2023-08-04T10:06:24.874Z,5.11
2023-08-04T10:08:56.356Z,4.80
2023-08-04T10:11:25.602Z,4.89
2023-08-04T10:13:56.738Z,4.75
2023-08-04T10:16:35.513Z,5.21
2023-08-04T10:19:05.762Z,5.18
2023-08-04T10:21:41.226Z,4.85
2023-08-04T10:24:14.260Z,4.90
2023-08-04T10:26:54.237Z,4.91
2023-08-04T10:29:33.701Z,4.92
2023-08-04T10:32:04.512Z,3.96
2023-08-04T10:34:38.318Z,4.18
2023-08-04T10:37:08.183Z,4.21
2023-08-04T10:39:39.836Z,4.09
2023-08-04T10:42:23.457Z,4.25
2023-08-04T10:44:56.920Z,3.90
2023-08-04T10:50:26.380Z,3.17
2023-08-04T10:52:54.338Z,3.55
2023-08-04T10:55:22.127Z,3.53
2023-08-04T10:57:50.031Z,3.37
2023-08-04T11:00:17.853Z,3.36
2023-08-04T11:02:45.680Z,3.58
2023-08-04T11:05:13.498Z,3.56
2023-08-04T11:07:48.176Z,3.59
2023-08-04T11:10:16.696Z,3.30
2023-08-04T11:12:44.682Z,3.50
2023-08-04T11:15:12.752Z,3.48
2023-08-04T11:17:43.471Z,3.26
2023-08-04T11:22:48.137Z,3.50
2023-08-04T11:25:16.196Z,3.24
2023-08-04T11:27:46.172Z,2.80
2023-08-04T11:30:14.105Z,3.02
2023-08-04T11:32:48.677Z,2.89
2023-08-04T11:35:16.641Z,2.65
2023-08-04T11:37:44.661Z,2.71
2023-08-04T11:40:23.103Z,2.70
2023-08-04T11:42:52.136Z,2.87
2023-08-04T11:45:20.398Z,2.78
2023-08-04T11:47:48.500Z,2.68
2023-08-04T11:50:17.883Z,2.71
2023-08-04T11:52:49.154Z,2.61
2023-08-04T11:55:17.423Z,2.80
2023-08-04T11:57:52.876Z,2.33
2023-08-04T12:00:39.805Z,1.80
2023-08-04T12:03:08.374Z,1.91
2023-08-04T12:05:40.206Z,1.91
2023-08-04T12:08:16.157Z,2.02
2023-08-04T12:10:44.683Z,2.01
2023-08-04T12:13:32.984Z,2.14
2023-08-04T12:16:00.744Z,2.18
2023-08-04T12:18:29.731Z,2.10
2023-08-04T12:20:58.527Z,1.85
2023-08-04T12:23:27.406Z,1.89
2023-08-04T12:25:55.352Z,2.17
2023-08-04T12:28:23.466Z,2.16
2023-08-04T12:31:12.499Z,2.44
2023-08-04T12:33:40.199Z,2.09
2023-08-04T12:36:08.034Z,2.06
2023-08-04T12:38:35.704Z,2.14
2023-08-04T12:41:04.102Z,2.10
2023-08-04T12:43:31.817Z,1.83
2023-08-04T12:46:02.635Z,2.06
2023-08-04T12:48:30.695Z,1.92
2023-08-04T12:50:58.702Z,1.70
2023-08-04T12:53:26.441Z,1.90
2023-08-04T12:55:54.301Z,1.92
2023-08-04T12:58:22.152Z,1.88
2023-08-04T13:00:49.895Z,1.83
2023-08-04T13:03:17.926Z,1.76
2023-08-04T13:05:46.048Z,1.78
2023-08-04T13:08:13.848Z,1.84
2023-08-04T13:10:41.779Z,1.88
2023-08-04T13:13:09.506Z,2.08
2023-08-04T13:15:42.430Z,1.91
2023-08-04T13:18:10.362Z,2.04
2023-08-04T13:20:39.842Z,2.17
2023-08-04T13:23:08.651Z,2.04
2023-08-04T13:25:40.650Z,2.47
2023-08-04T13:28:09.204Z,2.61
2023-08-04T13:30:37.192Z,2.71
2023-08-04T13:33:05.319Z,2.68
2023-08-04T13:35:33.225Z,2.87
2023-08-04T13:38:01.175Z,2.49
2023-08-04T13:40:29.123Z,2.05
2023-08-04T13:42:56.837Z,1.53
2023-08-04T13:45:24.484Z,1.38
2023-08-04T13:47:52.231Z,1.30
2023-08-04T13:50:20.135Z,1.21
2023-08-04T13:52:48.169Z,1.39
2023-08-04T13:55:16.172Z,1.39
2023-08-04T13:57:43.960Z,1.41
2023-08-04T14:00:12.938Z,1.29
2023-08-04T14:02:41.723Z,1.50
2023-08-04T14:05:10.198Z,1.46
2023-08-04T14:07:39.368Z,1.60
2023-08-04T14:10:11.343Z,1.67
2023-08-04T14:12:40.192Z,1.77
2023-08-04T14:15:08.613Z,1.62
2023-08-04T14:17:36.581Z,1.84
2023-08-04T14:20:06.925Z,1.66
2023-08-04T14:22:35.189Z,1.83
2023-08-04T14:25:02.936Z,1.81
2023-08-04T14:27:32.618Z,1.83
2023-08-04T14:30:02.262Z,1.96
2023-08-04T14:32:30.545Z,2.26
2023-08-04T14:34:58.604Z,2.21
2023-08-04T14:37:26.455Z,2.18
2023-08-04T14:39:54.180Z,2.00
2023-08-04T14:42:22.055Z,1.84
2023-08-04T14:44:50.085Z,1.87
2023-08-04T14:47:18.088Z,1.87
2023-08-04T14:49:46.027Z,1.92
2023-08-04T14:52:13.804Z,1.56
2023-08-04T14:54:41.825Z,1.82
2023-08-04T14:57:09.790Z,1.94
2023-08-04T14:59:37.595Z,2.00
2023-08-04T15:02:06.591Z,1.80
2023-08-04T15:04:34.587Z,2.00
2023-08-04T15:07:02.668Z,1.77
2023-08-04T15:09:30.553Z,2.00
2023-08-04T15:11:58.388Z,1.71
2023-08-04T15:14:27.399Z,1.63
2023-08-04T15:16:55.447Z,1.59
2023-08-04T15:19:23.209Z,1.53
2023-08-04T15:21:50.987Z,1.74
2023-08-04T15:24:18.776Z,1.67
2023-08-04T15:26:47.392Z,1.77
2023-08-04T15:29:15.507Z,1.62
2023-08-04T15:31:43.463Z,1.81
2023-08-04T15:34:11.386Z,1.79
2023-08-04T15:36:39.954Z,1.82
2023-08-04T15:39:07.857Z,1.79
2023-08-04T15:41:36.901Z,1.77
2023-08-04T15:44:05.389Z,1.99
2023-08-04T15:46:33.324Z,2.28
2023-08-04T15:49:01.136Z,2.40
2023-08-04T15:51:29.000Z,2.38
2023-08-04T15:53:56.769Z,2.53
2023-08-04T15:56:24.426Z,2.27
2023-08-04T15:58:52.436Z,2.40
2023-08-04T16:01:20.383Z,2.49
2023-08-04T16:03:51.188Z,2.49
2023-08-04T16:06:20.256Z,2.45
2023-08-04T16:08:48.113Z,2.83
2023-08-04T16:11:15.919Z,2.71
2023-08-04T16:13:43.809Z,2.92
2023-08-04T16:16:12.287Z,2.90
2023-08-04T16:18:41.885Z,3.18
2023-08-04T16:21:09.800Z,2.84
2023-08-04T16:23:37.927Z,2.72
2023-08-04T16:26:05.959Z,2.49
2023-08-04T16:28:34.604Z,2.25
2023-08-04T16:31:03.074Z,2.55
2023-08-04T16:33:32.232Z,2.40
2023-08-04T16:36:00.164Z,2.47
2023-08-04T16:38:27.892Z,2.54
2023-08-04T16:40:58.355Z,2.48
2023-08-04T16:43:29.275Z,2.24
2023-08-04T16:46:00.284Z,2.39
2023-08-04T16:48:28.405Z,2.43
2023-08-04T16:50:56.283Z,2.23
2023-08-04T16:53:24.027Z,2.41
2023-08-04T16:55:54.874Z,2.29
2023-08-04T16:58:22.727Z,2.43
2023-08-04T17:00:50.630Z,2.29
2023-08-04T17:03:18.462Z,2.38
2023-08-04T17:05:46.215Z,2.37
2023-08-04T17:08:14.922Z,2.24
2023-08-04T17:10:42.675Z,2.24
2023-08-04T17:13:10.792Z,2.36
2023-08-04T17:15:39.962Z,2.38
2023-08-04T17:18:12.647Z,2.43
2023-08-04T17:20:41.445Z,2.34
2023-08-04T17:23:09.300Z,2.41
2023-08-04T17:25:37.092Z,2.45
2023-08-04T17:28:05.191Z,2.65
2023-08-04T17:30:33.019Z,2.48
2023-08-04T17:33:00.829Z,2.77
2023-08-04T17:35:28.844Z,2.62
2023-08-04T17:37:56.713Z,2.59
2023-08-04T17:40:24.694Z,2.60
2023-08-04T17:42:52.462Z,2.64
2023-08-04T17:45:20.434Z,2.72
2023-08-04T17:47:48.146Z,2.45
2023-08-04T17:50:16.165Z,2.58
2023-08-04T17:52:44.361Z,2.53
2023-08-04T17:55:12.150Z,2.64
2023-08-04T17:57:39.938Z,2.47
2023-08-04T18:00:08.858Z,2.55
2023-08-04T18:02:41.549Z,2.35
2023-08-04T18:05:09.538Z,2.47
2023-08-04T18:07:38.015Z,2.43
2023-08-04T18:10:06.463Z,2.53
2023-08-04T18:12:34.321Z,2.22
2023-08-04T18:15:02.380Z,2.31
2023-08-04T18:17:30.993Z,2.35
2023-08-04T18:19:59.102Z,2.34
2023-08-04T18:22:26.884Z,2.30
2023-08-04T18:24:54.670Z,2.30
2023-08-04T18:27:22.553Z,2.43
2023-08-04T18:29:50.423Z,2.57
2023-08-04T18:32:18.170Z,2.78
2023-08-04T18:34:45.960Z,2.65
2023-08-04T18:37:13.751Z,2.62
2023-08-04T18:39:41.682Z,2.60
2023-08-04T18:42:09.435Z,2.78
2023-08-04T18:44:37.204Z,2.89
2023-08-04T18:47:05.457Z,2.81
2023-08-04T18:49:33.503Z,2.84
2023-08-04T18:52:01.370Z,3.32
2023-08-04T18:54:30.578Z,3.51
2023-08-04T18:56:58.781Z,3.83
2023-08-04T18:59:26.679Z,3.58
2023-08-04T19:01:55.470Z,3.31
2023-08-04T19:04:23.414Z,3.33
2023-08-04T19:06:51.568Z,3.48
2023-08-04T19:09:19.573Z,3.55
2023-08-04T19:11:47.382Z,3.52
2023-08-04T19:14:15.388Z,3.86
2023-08-04T19:16:43.243Z,3.71
2023-08-04T19:19:11.162Z,3.92
2023-08-04T19:21:39.158Z,4.18
2023-08-04T19:24:07.176Z,3.95
2023-08-04T19:26:34.978Z,4.36
2023-08-04T19:29:02.884Z,3.66
2023-08-04T19:31:30.866Z,3.89
2023-08-04T19:33:59.636Z,3.90
2023-08-04T19:36:27.574Z,3.59
2023-08-04T19:38:55.351Z,3.81
2023-08-04T19:41:23.341Z,3.67
2023-08-04T19:43:51.152Z,3.40
2023-08-04T19:46:19.059Z,3.32
2023-08-04T19:48:48.091Z,3.31
2023-08-04T19:51:19.655Z,3.32
2023-08-04T19:53:48.265Z,3.18
2023-08-04T19:56:16.122Z,3.32
2023-08-04T19:58:43.874Z,3.21
2023-08-04T20:01:15.518Z,2.98
2023-08-04T20:03:45.721Z,3.43
2023-08-04T20:06:13.889Z,3.12
2023-08-04T20:08:43.013Z,3.04
2023-08-04T20:11:11.288Z,3.25
2023-08-04T20:13:40.229Z,3.23
2023-08-04T20:16:15.747Z,2.89
2023-08-04T20:18:44.091Z,3.12
2023-08-04T20:21:13.572Z,3.14
2023-08-04T20:23:41.725Z,3.27
2023-08-04T20:26:12.519Z,3.00
2023-08-04T20:28:43.128Z,2.94
2023-08-04T20:31:15.245Z,2.82
2023-08-04T20:33:43.059Z,2.99
2023-08-04T20:36:13.309Z,3.17
2023-08-04T20:38:42.358Z,2.99
2023-08-04T20:41:12.752Z,3.11
2023-08-04T20:43:42.860Z,3.28
2023-08-04T20:46:11.882Z,3.26
2023-08-04T20:48:40.181Z,3.37
2023-08-04T20:51:08.859Z,3.56
2023-08-04T20:53:40.027Z,3.35
2023-08-04T20:56:09.112Z,3.46
2023-08-04T20:58:39.182Z,3.41
2023-08-04T21:01:09.829Z,3.35
2023-08-04T21:03:40.887Z,3.73
2023-08-04T21:06:09.052Z,3.23
2023-08-04T21:08:36.991Z,3.42
2023-08-04T21:11:05.530Z,3.31
2023-08-04T21:13:33.641Z,3.42
2023-08-04T21:16:01.553Z,3.44
2023-08-04T21:18:29.513Z,3.33
2023-08-04T21:20:58.051Z,3.13
2023-08-04T21:23:26.767Z,3.16
2023-08-04T21:25:55.099Z,3.11
2023-08-04T21:28:23.539Z,3.17
2023-08-04T21:30:54.980Z,3.31
2023-08-04T21:33:22.886Z,2.79
2023-08-04T21:36:04.907Z,3.38
2023-08-04T21:38:33.724Z,3.13
2023-08-04T21:41:06.623Z,3.02
2023-08-04T21:43:35.599Z,3.44
2023-08-04T21:46:14.129Z,3.25
2023-08-04T21:48:42.869Z,3.39
2023-08-04T21:51:15.802Z,3.42
2023-08-04T21:53:44.020Z,3.13
2023-08-04T21:56:11.821Z,3.04
2023-08-04T21:58:41.757Z,3.02
2023-08-04T22:01:11.889Z,3.33
2023-08-04T22:03:39.848Z,3.07
2023-08-04T22:06:08.497Z,3.26
2023-08-04T22:08:38.018Z,3.38
2023-08-04T22:11:12.987Z,3.40
2023-08-04T22:13:42.270Z,3.43
2023-08-04T22:16:10.734Z,3.99
2023-08-04T22:18:38.563Z,3.48
2023-08-04T22:21:08.169Z,3.41
2023-08-04T22:23:37.606Z,3.44
2023-08-04T22:26:08.065Z,3.15
2023-08-04T22:28:36.943Z,3.18
2023-08-04T22:31:05.205Z,3.23
2023-08-04T22:33:36.472Z,3.08
2023-08-04T22:36:07.841Z,3.02
2023-08-04T22:38:35.799Z,3.11
2023-08-04T22:41:06.273Z,3.30
2023-08-04T22:43:34.199Z,3.30
2023-08-04T22:46:05.033Z,2.89
2023-08-04T22:48:33.639Z,3.21
2023-08-04T22:51:01.418Z,3.30
2023-08-04T22:53:29.123Z,3.28
2023-08-04T22:56:00.729Z,3.41
2023-08-04T22:58:28.550Z,3.47
2023-08-04T23:00:57.062Z,3.71
2023-08-04T23:03:24.921Z,3.65
2023-08-04T23:05:52.712Z,4.10
2023-08-04T23:08:20.491Z,3.87
2023-08-04T23:10:56.147Z,4.01
2023-08-04T23:13:24.604Z,4.10
2023-08-04T23:15:52.790Z,3.61
2023-08-04T23:18:20.636Z,3.58
2023-08-04T23:20:51.211Z,3.64
2023-08-04T23:23:19.919Z,3.34
2023-08-04T23:25:48.394Z,3.65
2023-08-04T23:28:16.868Z,3.81
2023-08-04T23:30:49.846Z,3.52
2023-08-04T23:33:18.615Z,3.76
2023-08-04T23:35:56.577Z,3.59
2023-08-04T23:38:25.330Z,3.63
2023-08-04T23:41:01.634Z,3.54
2023-08-04T23:43:30.195Z,3.84
2023-08-04T23:45:58.233Z,3.74
2023-08-04T23:48:26.174Z,3.80
2023-08-04T23:50:53.990Z,3.82
2023-08-04T23:53:22.665Z,3.55
2023-08-04T23:55:50.695Z,4.05
2023-08-04T23:58:19.245Z,4.35
